createdAt,value
2017-08-29T00:00:01.615Z,16.51
2017-08-29T00:00:05.833Z,16.52
2017-08-29T00:00:09.793Z,16.53
2017-08-29T00:00:13.885Z,16.52
2017-08-29T00:00:17.853Z,16.52
2017-08-29T00:00:21.685Z,16.52
2017-08-29T00:00:25.777Z,16.52
2017-08-29T00:00:29.744Z,16.52
2017-08-29T00:00:33.707Z,16.52
2017-08-29T00:00:37.778Z,16.52
2017-08-29T00:00:41.884Z,16.52
2017-08-29T00:00:45.982Z,16.52
2017-08-29T00:00:50.064Z,16.52
2017-08-29T00:00:54.035Z,16.51
2017-08-29T00:00:58.384Z,16.52
2017-08-29T00:01:02.361Z,16.51
2017-08-29T00:01:06.832Z,16.52
2017-08-29T00:01:11.050Z,16.51
2017-08-29T00:01:15.527Z,16.51
2017-08-29T00:01:19.605Z,16.51
2017-08-29T00:01:23.558Z,16.51
2017-08-29T00:01:27.648Z,16.51
2017-08-29T00:01:31.742Z,16.51
2017-08-29T00:01:35.577Z,16.51
2017-08-29T00:01:39.800Z,16.51
2017-08-29T00:01:43.768Z,16.51
2017-08-29T00:01:47.861Z,16.51
2017-08-29T00:01:52.210Z,16.51
2017-08-29T00:01:56.038Z,16.51
2017-08-29T00:02:00.368Z,16.52
2017-08-29T00:02:04.458Z,16.52
2017-08-29T00:02:08.419Z,16.51
2017-08-29T00:02:12.379Z,16.51
2017-08-29T00:02:16.450Z,16.51
2017-08-29T00:02:20.537Z,16.51
2017-08-29T00:02:24.246Z,16.51
2017-08-29T00:02:28.585Z,16.5
2017-08-29T00:02:33.031Z,16.51
2017-08-29T00:02:37.114Z,16.5
2017-08-29T00:02:41.569Z,16.5
2017-08-29T00:02:45.801Z,16.5
2017-08-29T00:02:50.154Z,16.5
2017-08-29T00:02:54.382Z,16.51
2017-08-29T00:02:58.720Z,16.5
2017-08-29T00:03:03.103Z,16.5
2017-08-29T00:03:07.056Z,16.51
2017-08-29T00:03:11.141Z,16.5
2017-08-29T00:03:15.364Z,16.5
2017-08-29T00:03:19.345Z,16.49
2017-08-29T00:03:23.700Z,16.5
2017-08-29T00:03:28.048Z,16.5
2017-08-29T00:03:32.511Z,16.49
2017-08-29T00:03:36.585Z,16.5
2017-08-29T00:03:40.928Z,16.49
2017-08-29T00:03:45.027Z,16.49
2017-08-29T00:03:49.230Z,16.49
2017-08-29T00:03:53.322Z,16.48
2017-08-29T00:03:57.421Z,16.49
2017-08-29T00:04:01.982Z,16.48
2017-08-29T00:04:06.309Z,16.49
2017-08-29T00:04:10.394Z,16.49
2017-08-29T00:04:14.478Z,16.49
2017-08-29T00:04:18.570Z,16.49
2017-08-29T00:04:22.540Z,16.49
2017-08-29T00:04:26.628Z,16.48
2017-08-29T00:04:30.726Z,16.48
2017-08-29T00:04:34.819Z,16.48
2017-08-29T00:04:38.891Z,16.48
2017-08-29T00:04:42.997Z,16.48
2017-08-29T00:04:47.217Z,16.48
2017-08-29T00:04:51.421Z,16.48
2017-08-29T00:04:55.746Z,16.48
2017-08-29T00:04:59.979Z,16.47
2017-08-29T00:05:04.428Z,16.47
2017-08-29T00:05:08.514Z,16.48
2017-08-29T00:05:12.604Z,16.48
2017-08-29T00:05:16.833Z,16.48
2017-08-29T00:05:20.668Z,16.47
2017-08-29T00:05:24.887Z,16.48
2017-08-29T00:05:29.235Z,16.47
2017-08-29T00:05:33.578Z,16.47
2017-08-29T00:05:37.817Z,16.47
2017-08-29T00:05:41.516Z,16.47
2017-08-29T00:05:45.611Z,16.48
2017-08-29T00:05:49.588Z,16.48
2017-08-29T00:05:53.811Z,16.47
2017-08-29T00:05:58.145Z,16.47
2017-08-29T00:06:02.249Z,16.47
2017-08-29T00:06:06.451Z,16.47
2017-08-29T00:06:10.553Z,16.47
2017-08-29T00:06:14.913Z,16.47
2017-08-29T00:06:19.248Z,16.47
2017-08-29T00:06:23.336Z,16.46
2017-08-29T00:06:27.426Z,16.47
2017-08-29T00:06:31.759Z,16.47
2017-08-29T00:06:35.958Z,16.46
2017-08-29T00:06:40.026Z,16.47
2017-08-29T00:06:43.988Z,16.46
2017-08-29T00:06:48.086Z,16.46
2017-08-29T00:06:52.290Z,16.47
2017-08-29T00:06:56.489Z,16.46
2017-08-29T00:07:00.583Z,16.47
2017-08-29T00:07:04.549Z,16.47
2017-08-29T00:07:08.638Z,16.46
2017-08-29T00:07:12.855Z,16.47
2017-08-29T00:07:17.057Z,16.46
2017-08-29T00:07:21.138Z,16.46
2017-08-29T00:07:25.212Z,16.46
2017-08-29T00:07:29.301Z,16.46
2017-08-29T00:07:33.395Z,16.46
2017-08-29T00:07:37.479Z,16.45
2017-08-29T00:07:41.806Z,16.46
2017-08-29T00:07:46.020Z,16.46
2017-08-29T00:07:50.359Z,16.46
2017-08-29T00:07:54.575Z,16.45
2017-08-29T00:07:58.669Z,16.45
2017-08-29T00:08:02.886Z,16.47
2017-08-29T00:08:07.229Z,16.47
2017-08-29T00:08:11.313Z,16.46
2017-08-29T00:08:15.414Z,16.46
2017-08-29T00:08:19.375Z,16.46
2017-08-29T00:08:23.341Z,16.46
2017-08-29T00:08:27.305Z,16.46
2017-08-29T00:08:31.513Z,16.46
2017-08-29T00:08:35.725Z,16.45
2017-08-29T00:08:39.808Z,16.46
2017-08-29T00:08:44.018Z,16.46
2017-08-29T00:08:47.870Z,16.46
2017-08-29T00:08:52.084Z,16.46
2017-08-29T00:08:56.159Z,16.46
2017-08-29T00:08:59.993Z,16.46
2017-08-29T00:09:04.201Z,16.46
2017-08-29T00:09:08.170Z,16.46
2017-08-29T00:09:12.140Z,16.46
2017-08-29T00:09:16.226Z,16.46
2017-08-29T00:09:20.445Z,16.46
2017-08-29T00:09:24.651Z,16.46
2017-08-29T00:09:28.489Z,16.46
2017-08-29T00:09:32.835Z,16.46
2017-08-29T00:09:36.805Z,16.46
2017-08-29T00:09:40.880Z,16.46
2017-08-29T00:09:45.100Z,16.45
2017-08-29T00:09:49.303Z,16.45
2017-08-29T00:09:53.379Z,16.46
2017-08-29T00:09:57.098Z,16.45
2017-08-29T00:10:01.311Z,16.45
2017-08-29T00:10:05.668Z,16.46
2017-08-29T00:10:09.757Z,16.45
2017-08-29T00:10:14.090Z,16.45
2017-08-29T00:10:18.429Z,16.45
2017-08-29T00:10:22.655Z,16.45
2017-08-29T00:10:26.866Z,16.45
2017-08-29T00:10:31.080Z,16.45
2017-08-29T00:10:35.317Z,16.45
2017-08-29T00:10:39.552Z,16.46
2017-08-29T00:10:43.762Z,16.45
2017-08-29T00:10:48.086Z,16.46
2017-08-29T00:10:52.308Z,16.45
2017-08-29T00:10:56.291Z,16.45
2017-08-29T00:11:00.622Z,16.45
2017-08-29T00:11:05.005Z,16.44
2017-08-29T00:11:09.091Z,16.45
2017-08-29T00:11:13.444Z,16.44
2017-08-29T00:11:17.391Z,16.45
2017-08-29T00:11:21.708Z,16.44
2017-08-29T00:11:25.906Z,16.45
2017-08-29T00:11:29.996Z,16.45
2017-08-29T00:11:34.207Z,16.45
2017-08-29T00:11:38.412Z,16.44
2017-08-29T00:11:42.619Z,16.44
2017-08-29T00:11:46.591Z,16.44
2017-08-29T00:11:50.914Z,16.44
2017-08-29T00:11:54.993Z,16.45
2017-08-29T00:11:58.948Z,16.45
2017-08-29T00:12:03.388Z,16.44
2017-08-29T00:12:07.348Z,16.44
2017-08-29T00:12:11.432Z,16.44
2017-08-29T00:12:15.657Z,16.44
2017-08-29T00:12:19.747Z,16.44
2017-08-29T00:12:23.967Z,16.44
2017-08-29T00:12:28.091Z,16.44
2017-08-29T00:12:32.178Z,16.43
2017-08-29T00:12:36.390Z,16.43
2017-08-29T00:12:40.484Z,16.44
2017-08-29T00:12:44.452Z,16.44
2017-08-29T00:12:48.898Z,16.43
2017-08-29T00:12:53.239Z,16.45
2017-08-29T00:12:57.327Z,16.43
2017-08-29T00:13:01.279Z,16.43
2017-08-29T00:13:05.239Z,16.44
2017-08-29T00:13:09.596Z,16.43
2017-08-29T00:13:13.807Z,16.44
2017-08-29T00:13:17.898Z,16.44
2017-08-29T00:13:21.851Z,16.43
2017-08-29T00:13:25.804Z,16.44
2017-08-29T00:13:30.164Z,16.43
2017-08-29T00:13:34.117Z,16.43
2017-08-29T00:13:38.325Z,16.44
2017-08-29T00:13:42.677Z,16.44
2017-08-29T00:13:46.997Z,16.44
2017-08-29T00:13:51.332Z,16.43
2017-08-29T00:13:55.303Z,16.44
2017-08-29T00:13:59.260Z,16.43
2017-08-29T00:14:03.091Z,16.43
2017-08-29T00:14:07.186Z,16.44
2017-08-29T00:14:11.281Z,16.43
2017-08-29T00:14:15.495Z,16.43
2017-08-29T00:14:19.710Z,16.43
2017-08-29T00:14:23.681Z,16.43
2017-08-29T00:14:27.903Z,16.42
2017-08-29T00:14:32.238Z,16.42
2017-08-29T00:14:36.754Z,16.43
2017-08-29T00:14:40.954Z,16.43
2017-08-29T00:14:44.917Z,16.43
2017-08-29T00:14:49.021Z,16.42
2017-08-29T00:14:53.103Z,16.43
2017-08-29T00:14:57.309Z,16.42
2017-08-29T00:15:01.835Z,16.42
2017-08-29T00:15:06.062Z,16.42
2017-08-29T00:15:10.151Z,16.43
2017-08-29T00:15:14.255Z,16.43
2017-08-29T00:15:18.575Z,16.42
2017-08-29T00:15:22.805Z,16.42
2017-08-29T00:15:26.898Z,16.42
2017-08-29T00:15:31.124Z,16.42
2017-08-29T00:15:35.224Z,16.42
2017-08-29T00:15:39.694Z,16.42
2017-08-29T00:15:43.781Z,16.43
2017-08-29T00:15:47.737Z,16.41
2017-08-29T00:16:24.060Z,16.41
2017-08-29T00:16:28.141Z,16.41
2017-08-29T00:16:32.254Z,16.42
2017-08-29T00:16:36.342Z,16.41
2017-08-29T00:16:40.557Z,16.42
2017-08-29T00:16:44.789Z,16.41
2017-08-29T00:16:48.885Z,16.41
2017-08-29T00:16:52.969Z,16.41
2017-08-29T00:16:56.930Z,16.41
2017-08-29T00:17:00.761Z,16.42
2017-08-29T00:17:05.040Z,16.42
2017-08-29T00:17:09.128Z,16.42
2017-08-29T00:17:13.212Z,16.42
2017-08-29T00:17:17.436Z,16.42
2017-08-29T00:17:21.631Z,16.41
2017-08-29T00:17:25.847Z,16.41
2017-08-29T00:17:30.055Z,16.41
2017-08-29T00:17:34.157Z,16.41
2017-08-29T00:17:38.003Z,16.41
2017-08-29T00:17:42.193Z,16.41
2017-08-29T00:17:46.404Z,16.41
2017-08-29T00:17:50.364Z,16.41
2017-08-29T00:17:54.462Z,16.4
2017-08-29T00:17:58.180Z,16.41
2017-08-29T00:18:02.665Z,16.4
2017-08-29T00:18:06.895Z,16.41
2017-08-29T00:18:10.979Z,16.41
2017-08-29T00:18:15.078Z,16.4
2017-08-29T00:18:19.289Z,16.4
2017-08-29T00:18:23.380Z,16.41
2017-08-29T00:18:27.720Z,16.4
2017-08-29T00:18:31.816Z,16.41
2017-08-29T00:18:35.796Z,16.4
2017-08-29T00:18:39.750Z,16.4
2017-08-29T00:18:43.847Z,16.4
2017-08-29T00:18:47.952Z,16.41
2017-08-29T00:18:52.202Z,16.41
2017-08-29T00:18:56.297Z,16.4
2017-08-29T00:19:00.372Z,16.41
2017-08-29T00:19:04.468Z,16.41
2017-08-29T00:19:08.551Z,16.4
2017-08-29T00:19:12.526Z,16.4
2017-08-29T00:19:16.381Z,16.39
2017-08-29T00:19:20.220Z,16.4
2017-08-29T00:19:24.563Z,16.4
2017-08-29T00:19:28.899Z,16.4
2017-08-29T00:19:32.999Z,16.4
2017-08-29T00:19:37.212Z,16.4
2017-08-29T00:19:41.156Z,16.39
2017-08-29T00:19:44.988Z,16.4
2017-08-29T00:19:49.226Z,16.39
2017-08-29T00:19:53.544Z,16.39
2017-08-29T00:19:57.889Z,16.39
2017-08-29T00:20:02.117Z,16.4
2017-08-29T00:20:06.093Z,16.4
2017-08-29T00:20:10.183Z,16.4
2017-08-29T00:20:14.276Z,16.39
2017-08-29T00:20:18.626Z,16.39
2017-08-29T00:20:22.721Z,16.4
2017-08-29T00:20:26.675Z,16.4
2017-08-29T00:20:30.780Z,16.39
2017-08-29T00:20:35.111Z,16.39
2017-08-29T00:20:39.198Z,16.39
2017-08-29T00:20:43.389Z,16.39
2017-08-29T00:20:47.488Z,16.39
2017-08-29T00:20:51.482Z,16.39
2017-08-29T00:20:55.821Z,16.39
2017-08-29T00:20:59.912Z,16.39
2017-08-29T00:21:04.437Z,16.39
2017-08-29T00:21:08.530Z,16.39
2017-08-29T00:21:12.742Z,16.38
2017-08-29T00:21:16.931Z,16.38
2017-08-29T00:21:21.006Z,16.39
2017-08-29T00:21:25.462Z,16.39
2017-08-29T00:21:29.543Z,16.39
2017-08-29T00:21:33.767Z,16.39
2017-08-29T00:21:38.139Z,16.39
2017-08-29T00:21:42.107Z,16.39
2017-08-29T00:21:46.080Z,16.39
2017-08-29T00:21:50.033Z,16.4
2017-08-29T00:21:54.372Z,16.39
2017-08-29T00:21:58.580Z,16.38
2017-08-29T00:22:02.897Z,16.38
2017-08-29T00:22:06.878Z,16.39
2017-08-29T00:22:10.712Z,16.39
2017-08-29T00:22:14.685Z,16.38
2017-08-29T00:22:18.632Z,16.38
2017-08-29T00:22:22.599Z,16.38
2017-08-29T00:22:26.843Z,16.39
2017-08-29T00:22:30.931Z,16.38
2017-08-29T00:22:35.016Z,16.39
2017-08-29T00:22:38.993Z,16.38
2017-08-29T00:22:43.060Z,16.38
2017-08-29T00:22:47.022Z,16.39
2017-08-29T00:22:51.471Z,16.38
2017-08-29T00:22:55.672Z,16.39
2017-08-29T00:22:59.752Z,16.39
2017-08-29T00:23:03.958Z,16.39
2017-08-29T00:23:08.042Z,16.39
2017-08-29T00:23:12.362Z,16.39
2017-08-29T00:23:16.568Z,16.39
2017-08-29T00:23:20.779Z,16.39
2017-08-29T00:23:24.877Z,16.39
2017-08-29T00:23:29.207Z,16.38
2017-08-29T00:23:33.432Z,16.39
2017-08-29T00:23:37.400Z,16.39
2017-08-29T00:23:41.497Z,16.38
2017-08-29T00:23:45.595Z,16.39
2017-08-29T00:23:49.539Z,16.39
2017-08-29T00:23:53.399Z,16.38
2017-08-29T00:23:57.748Z,16.38
2017-08-29T00:24:02.071Z,16.38
2017-08-29T00:24:06.155Z,16.39
2017-08-29T00:24:10.377Z,16.39
2017-08-29T00:24:14.483Z,16.39
2017-08-29T00:24:18.576Z,16.39
2017-08-29T00:24:22.806Z,16.38
2017-08-29T00:24:26.763Z,16.39
2017-08-29T00:24:30.975Z,16.39
2017-08-29T00:24:35.176Z,16.39
2017-08-29T00:24:39.368Z,16.38
2017-08-29T00:24:43.581Z,16.38
2017-08-29T00:24:47.561Z,16.39
2017-08-29T00:24:51.651Z,16.38
2017-08-29T00:24:55.878Z,16.38
2017-08-29T00:24:59.969Z,16.39
2017-08-29T00:25:04.320Z,16.38
2017-08-29T00:25:08.421Z,16.38
2017-08-29T00:25:12.367Z,16.38
2017-08-29T00:25:16.577Z,16.38
2017-08-29T00:25:20.783Z,16.38
2017-08-29T00:25:24.628Z,16.39
2017-08-29T00:25:28.842Z,16.37
2017-08-29T00:25:32.930Z,16.38
2017-08-29T00:25:37.020Z,16.38
2017-08-29T00:25:41.492Z,16.38
2017-08-29T00:25:45.705Z,16.38
2017-08-29T00:25:49.790Z,16.37
2017-08-29T00:25:53.760Z,16.38
2017-08-29T00:25:57.852Z,16.38
2017-08-29T00:26:02.610Z,16.38
2017-08-29T00:26:06.943Z,16.38
2017-08-29T00:26:11.169Z,16.38
2017-08-29T00:26:15.553Z,16.38
2017-08-29T00:26:19.902Z,16.37
2017-08-29T00:26:23.747Z,16.38
2017-08-29T00:26:27.976Z,16.38
2017-08-29T00:26:32.324Z,16.38
2017-08-29T00:26:36.544Z,16.37
2017-08-29T00:26:40.644Z,16.38
2017-08-29T00:26:45.111Z,16.37
2017-08-29T00:26:48.853Z,16.37
2017-08-29T00:26:52.930Z,16.37
2017-08-29T00:26:57.147Z,16.37
2017-08-29T00:27:01.529Z,16.37
2017-08-29T00:27:06.010Z,16.36
2017-08-29T00:27:09.961Z,16.37
2017-08-29T00:27:14.174Z,16.37
2017-08-29T00:27:18.369Z,16.38
2017-08-29T00:27:22.204Z,16.38
2017-08-29T00:27:26.034Z,16.37
2017-08-29T00:27:30.253Z,16.38
2017-08-29T00:27:34.202Z,16.37
2017-08-29T00:27:38.543Z,16.37
2017-08-29T00:27:42.873Z,16.37
2017-08-29T00:27:46.825Z,16.37
2017-08-29T00:27:50.918Z,16.37
2017-08-29T00:27:54.884Z,16.37
2017-08-29T00:27:59.014Z,16.38
2017-08-29T00:28:03.106Z,16.37
2017-08-29T00:28:07.439Z,16.37
2017-08-29T00:28:11.419Z,16.36
2017-08-29T00:28:15.388Z,16.37
2017-08-29T00:28:19.609Z,16.36
2017-08-29T00:28:23.701Z,16.36
2017-08-29T00:28:27.893Z,16.36
2017-08-29T00:28:32.106Z,16.36
2017-08-29T00:28:36.182Z,16.37
2017-08-29T00:28:40.637Z,16.37
2017-08-29T00:28:44.854Z,16.36
2017-08-29T00:28:48.691Z,16.36
2017-08-29T00:28:52.530Z,16.36
2017-08-29T00:28:56.741Z,16.37
2017-08-29T00:29:01.071Z,16.36
2017-08-29T00:29:05.291Z,16.37
2017-08-29T00:29:09.381Z,16.37
2017-08-29T00:29:13.714Z,16.36
2017-08-29T00:29:17.925Z,16.36
2017-08-29T00:29:21.757Z,16.36
2017-08-29T00:29:25.844Z,16.36
2017-08-29T00:29:29.940Z,16.36
2017-08-29T00:29:34.138Z,16.36
2017-08-29T00:29:38.313Z,16.35
2017-08-29T00:29:42.284Z,16.35
2017-08-29T00:29:46.523Z,16.36
2017-08-29T00:29:51.008Z,16.36
2017-08-29T00:29:55.095Z,16.36
2017-08-29T00:29:59.063Z,16.34
2017-08-29T00:30:03.155Z,16.35
2017-08-29T00:30:07.226Z,16.35
2017-08-29T00:30:11.572Z,16.35
2017-08-29T00:30:16.068Z,16.35
2017-08-29T00:30:20.287Z,16.35
2017-08-29T00:30:24.645Z,16.35
2017-08-29T00:30:29.110Z,16.34
2017-08-29T00:30:33.441Z,16.34
2017-08-29T00:30:37.889Z,16.34
2017-08-29T00:30:42.101Z,16.34
2017-08-29T00:30:46.219Z,16.35
2017-08-29T00:30:50.443Z,16.34
2017-08-29T00:30:54.654Z,16.34
2017-08-29T00:30:58.982Z,16.34
2017-08-29T00:31:03.269Z,16.35
2017-08-29T00:31:07.485Z,16.33
2017-08-29T00:31:11.944Z,16.34
2017-08-29T00:31:16.289Z,16.34
2017-08-29T00:31:20.383Z,16.34
2017-08-29T00:31:24.589Z,16.33
2017-08-29T00:31:28.938Z,16.34
2017-08-29T00:31:33.021Z,16.33
2017-08-29T00:31:37.224Z,16.34
2017-08-29T00:31:41.441Z,16.33
2017-08-29T00:31:45.668Z,16.34
2017-08-29T00:31:49.648Z,16.34
2017-08-29T00:31:53.976Z,16.33
2017-08-29T00:31:58.180Z,16.33
2017-08-29T00:32:02.307Z,16.33
2017-08-29T00:32:06.386Z,16.33
2017-08-29T00:32:10.601Z,16.32
2017-08-29T00:32:14.677Z,16.32
2017-08-29T00:32:18.775Z,16.32
2017-08-29T00:32:22.996Z,16.33
2017-08-29T00:32:27.080Z,16.32
2017-08-29T00:32:31.168Z,16.33
2017-08-29T00:32:35.376Z,16.32
2017-08-29T00:32:39.584Z,16.32
2017-08-29T00:32:43.913Z,16.32
2017-08-29T00:32:48.114Z,16.32
2017-08-29T00:32:52.323Z,16.32
2017-08-29T00:32:56.404Z,16.32
2017-08-29T00:33:00.366Z,16.32
2017-08-29T00:33:04.343Z,16.31
2017-08-29T00:33:08.687Z,16.32
2017-08-29T00:33:12.637Z,16.32
2017-08-29T00:33:16.722Z,16.31
2017-08-29T00:33:20.813Z,16.31
2017-08-29T00:33:24.793Z,16.31
2017-08-29T00:33:29.124Z,16.32
2017-08-29T00:33:33.223Z,16.31
2017-08-29T00:33:37.464Z,16.31
2017-08-29T00:33:41.423Z,16.31
2017-08-29T00:33:45.748Z,16.31
2017-08-29T00:33:49.711Z,16.31
2017-08-29T00:33:53.558Z,16.31
2017-08-29T00:33:57.525Z,16.31
2017-08-29T00:34:01.732Z,16.3
2017-08-29T00:34:05.821Z,16.31
2017-08-29T00:34:09.795Z,16.3
2017-08-29T00:34:14.002Z,16.3
2017-08-29T00:34:18.205Z,16.3
2017-08-29T00:34:22.286Z,16.3
2017-08-29T00:34:26.378Z,16.3
2017-08-29T00:34:30.701Z,16.29
2017-08-29T00:34:35.044Z,16.3
2017-08-29T00:34:39.142Z,16.3
2017-08-29T00:34:42.974Z,16.3
2017-08-29T00:34:47.064Z,16.3
2017-08-29T00:34:51.018Z,16.29
2017-08-29T00:34:55.101Z,16.28
2017-08-29T00:34:59.316Z,16.3
2017-08-29T00:35:03.657Z,16.29
2017-08-29T00:35:07.990Z,16.29
2017-08-29T00:35:11.993Z,16.29
2017-08-29T00:35:15.961Z,16.29
2017-08-29T00:35:20.306Z,16.29
2017-08-29T00:35:24.261Z,16.28
2017-08-29T00:35:28.604Z,16.29
2017-08-29T00:35:32.813Z,16.29
2017-08-29T00:35:36.917Z,16.28
2017-08-29T00:35:41.125Z,16.28
2017-08-29T00:35:45.341Z,16.28
2017-08-29T00:35:49.549Z,16.29
2017-08-29T00:35:53.627Z,16.28
2017-08-29T00:35:57.714Z,16.29
2017-08-29T00:36:01.919Z,16.28
2017-08-29T00:36:06.254Z,16.28
2017-08-29T00:36:10.357Z,16.28
2017-08-29T00:36:14.707Z,16.29
2017-08-29T00:36:18.795Z,16.28
2017-08-29T00:36:23.017Z,16.28
2017-08-29T00:36:27.354Z,16.28
2017-08-29T00:36:31.859Z,16.28
2017-08-29T00:36:35.831Z,16.28
2017-08-29T00:36:40.036Z,16.27
2017-08-29T00:36:44.122Z,16.26
2017-08-29T00:36:48.094Z,16.28
2017-08-29T00:36:52.323Z,16.27
2017-08-29T00:36:56.424Z,16.27
2017-08-29T00:37:00.517Z,16.27
2017-08-29T00:37:04.741Z,16.26
2017-08-29T00:37:08.836Z,16.28
2017-08-29T00:37:12.812Z,16.26
2017-08-29T00:37:17.154Z,16.26
2017-08-29T00:37:21.378Z,16.26
2017-08-29T00:37:25.337Z,16.25
2017-08-29T00:37:29.537Z,16.26
2017-08-29T00:37:33.872Z,16.26
2017-08-29T00:37:38.183Z,16.25
2017-08-29T00:37:42.273Z,16.26
2017-08-29T00:37:46.617Z,16.26
2017-08-29T00:37:50.943Z,16.26
2017-08-29T00:37:55.141Z,16.26
2017-08-29T00:37:59.233Z,16.26
2017-08-29T00:38:03.502Z,16.26
2017-08-29T00:38:07.886Z,16.25
2017-08-29T00:38:11.840Z,16.25
2017-08-29T00:38:15.796Z,16.26
2017-08-29T00:38:20.136Z,16.25
2017-08-29T00:38:24.362Z,16.25
2017-08-29T00:38:28.564Z,16.25
2017-08-29T00:38:32.526Z,16.25
2017-08-29T00:38:36.749Z,16.24
2017-08-29T00:38:40.839Z,16.24
2017-08-29T00:38:44.784Z,16.25
2017-08-29T00:38:49.018Z,16.25
2017-08-29T00:38:53.229Z,16.24
2017-08-29T00:38:57.317Z,16.25
2017-08-29T00:39:01.648Z,16.24
2017-08-29T00:39:05.694Z,16.24
2017-08-29T00:39:09.918Z,16.25
2017-08-29T00:39:14.140Z,16.24
2017-08-29T00:39:18.351Z,16.24
2017-08-29T00:39:22.447Z,16.24
2017-08-29T00:39:26.529Z,16.24
2017-08-29T00:39:30.634Z,16.24
2017-08-29T00:39:34.600Z,16.25
2017-08-29T00:39:38.807Z,16.24
2017-08-29T00:39:43.150Z,16.24
2017-08-29T00:39:47.370Z,16.24
2017-08-29T00:39:51.721Z,16.24
2017-08-29T00:39:55.795Z,16.24
2017-08-29T00:39:59.892Z,16.23
2017-08-29T00:40:03.958Z,16.23
2017-08-29T00:40:08.056Z,16.23
2017-08-29T00:40:12.397Z,16.23
2017-08-29T00:40:16.744Z,16.23
2017-08-29T00:40:21.091Z,16.24
2017-08-29T00:40:24.934Z,16.23
2017-08-29T00:40:29.148Z,16.23
2017-08-29T00:40:32.978Z,16.22
2017-08-29T00:40:37.314Z,16.22
2017-08-29T00:40:41.402Z,16.23
2017-08-29T00:40:45.356Z,16.23
2017-08-29T00:40:49.439Z,16.23
2017-08-29T00:40:53.525Z,16.23
2017-08-29T00:40:57.620Z,16.23
2017-08-29T00:41:02.076Z,16.22
2017-08-29T00:41:06.167Z,16.23
2017-08-29T00:41:10.270Z,16.22
2017-08-29T00:41:14.612Z,16.22
2017-08-29T00:41:19.069Z,16.22
2017-08-29T00:41:22.905Z,16.22
2017-08-29T00:41:27.120Z,16.22
2017-08-29T00:41:31.330Z,16.22
2017-08-29T00:41:35.546Z,16.22
2017-08-29T00:41:39.653Z,16.22
2017-08-29T00:41:43.619Z,16.22
2017-08-29T00:41:47.594Z,16.22
2017-08-29T00:41:51.544Z,16.21
2017-08-29T00:41:55.762Z,16.21
2017-08-29T00:41:59.729Z,16.22
2017-08-29T00:42:03.814Z,16.22
2017-08-29T00:42:08.025Z,16.21
2017-08-29T00:42:11.994Z,16.2
2017-08-29T00:42:16.366Z,16.21
2017-08-29T00:42:20.581Z,16.21
2017-08-29T00:42:24.419Z,16.21
2017-08-29T00:42:28.635Z,16.2
2017-08-29T00:42:33.090Z,16.21
2017-08-29T00:42:37.299Z,16.2
2017-08-29T00:42:41.631Z,16.2
2017-08-29T00:42:46.007Z,16.19
2017-08-29T00:42:50.232Z,16.21
2017-08-29T00:42:54.083Z,16.2
2017-08-29T00:42:57.910Z,16.2
2017-08-29T00:43:01.998Z,16.2
2017-08-29T00:43:06.202Z,16.2
2017-08-29T00:43:10.432Z,16.2
2017-08-29T00:43:14.790Z,16.2
2017-08-29T00:43:18.876Z,16.19
2017-08-29T00:43:22.836Z,16.2
2017-08-29T00:43:26.677Z,16.19
2017-08-29T00:43:31.133Z,16.2
2017-08-29T00:43:35.211Z,16.2
2017-08-29T00:43:39.415Z,16.2
2017-08-29T00:43:43.384Z,16.19
2017-08-29T00:43:47.730Z,16.2
2017-08-29T00:43:51.938Z,16.19
2017-08-29T00:43:56.025Z,16.19
2017-08-29T00:44:00.363Z,16.19
2017-08-29T00:44:05.048Z,16.2
2017-08-29T00:44:08.883Z,16.19
2017-08-29T00:44:13.076Z,16.2
2017-08-29T00:44:17.033Z,16.19
2017-08-29T00:44:21.252Z,16.19
2017-08-29T00:44:25.235Z,16.19
2017-08-29T00:44:29.330Z,16.19
2017-08-29T00:44:33.664Z,16.19
2017-08-29T00:44:37.900Z,16.19
2017-08-29T00:44:42.109Z,16.19
2017-08-29T00:44:46.076Z,16.18
2017-08-29T00:44:50.154Z,16.18
2017-08-29T00:44:54.248Z,16.18
2017-08-29T00:44:58.474Z,16.18
2017-08-29T00:45:02.741Z,16.18
2017-08-29T00:45:06.947Z,16.17
2017-08-29T00:45:10.792Z,16.18
2017-08-29T00:45:14.884Z,16.18
2017-08-29T00:45:18.709Z,16.17
2017-08-29T00:45:54.897Z,16.17
2017-08-29T00:45:58.989Z,16.17
2017-08-29T00:46:03.307Z,16.16
2017-08-29T00:46:07.766Z,16.17
2017-08-29T00:46:11.609Z,16.17
2017-08-29T00:46:15.569Z,16.16
2017-08-29T00:46:19.781Z,16.16
2017-08-29T00:46:23.879Z,16.16
2017-08-29T00:46:27.964Z,16.16
2017-08-29T00:46:32.039Z,16.16
2017-08-29T00:46:36.006Z,16.16
2017-08-29T00:46:40.351Z,16.16
2017-08-29T00:46:44.319Z,16.17
2017-08-29T00:46:48.564Z,16.16
2017-08-29T00:46:52.652Z,16.16
2017-08-29T00:46:56.748Z,16.16
2017-08-29T00:47:00.697Z,16.16
2017-08-29T00:47:05.147Z,16.16
2017-08-29T00:47:08.967Z,16.16
2017-08-29T00:47:12.945Z,16.16
2017-08-29T00:47:17.042Z,16.15
2017-08-29T00:47:21.126Z,16.15
2017-08-29T00:47:25.343Z,16.15
2017-08-29T00:47:29.552Z,16.16
2017-08-29T00:47:33.764Z,16.14
2017-08-29T00:47:37.855Z,16.15
2017-08-29T00:47:41.821Z,16.15
2017-08-29T00:47:46.024Z,16.16
2017-08-29T00:47:50.357Z,16.15
2017-08-29T00:47:54.451Z,16.15
2017-08-29T00:47:58.917Z,16.15
2017-08-29T00:48:03.129Z,16.14
2017-08-29T00:48:06.956Z,16.14
2017-08-29T00:48:11.171Z,16.14
2017-08-29T00:48:15.261Z,16.14
2017-08-29T00:48:19.337Z,16.14
2017-08-29T00:48:23.545Z,16.14
2017-08-29T00:48:27.765Z,16.14
2017-08-29T00:48:31.845Z,16.14
2017-08-29T00:48:35.937Z,16.13
2017-08-29T00:48:39.894Z,16.14
2017-08-29T00:48:43.851Z,16.14
2017-08-29T00:48:47.799Z,16.13
2017-08-29T00:48:52.142Z,16.14
2017-08-29T00:48:56.498Z,16.13
2017-08-29T00:49:00.467Z,16.14
2017-08-29T00:49:04.818Z,16.13
2017-08-29T00:49:09.154Z,16.14
2017-08-29T00:49:13.237Z,16.13
2017-08-29T00:49:17.565Z,16.14
2017-08-29T00:49:21.770Z,16.14
2017-08-29T00:49:25.987Z,16.14
2017-08-29T00:49:30.198Z,16.13
2017-08-29T00:49:34.280Z,16.12
2017-08-29T00:49:38.495Z,16.14
2017-08-29T00:49:42.572Z,16.13
2017-08-29T00:49:46.905Z,16.13
2017-08-29T00:49:51.235Z,16.13
2017-08-29T00:49:55.688Z,16.13
2017-08-29T00:49:59.914Z,16.13
2017-08-29T00:50:04.132Z,16.12
2017-08-29T00:50:08.235Z,16.13
2017-08-29T00:50:12.321Z,16.13
2017-08-29T00:50:16.661Z,16.13
2017-08-29T00:50:20.980Z,16.14
2017-08-29T00:50:24.812Z,16.12
2017-08-29T00:50:29.025Z,16.12
2017-08-29T00:50:33.224Z,16.13
2017-08-29T00:50:37.192Z,16.13
2017-08-29T00:50:41.413Z,16.13
2017-08-29T00:50:45.616Z,16.13
2017-08-29T00:50:49.707Z,16.12
2017-08-29T00:50:53.926Z,16.14
2017-08-29T00:50:57.888Z,16.13
2017-08-29T00:51:01.966Z,16.13
2017-08-29T00:51:05.931Z,16.13
2017-08-29T00:51:10.029Z,16.13
2017-08-29T00:51:14.229Z,16.12
2017-08-29T00:51:18.451Z,16.13
2017-08-29T00:51:22.541Z,16.12
2017-08-29T00:51:26.875Z,16.12
2017-08-29T00:51:30.947Z,16.12
2017-08-29T00:51:34.913Z,16.12
2017-08-29T00:51:39.131Z,16.12
2017-08-29T00:51:43.109Z,16.13
2017-08-29T00:51:47.315Z,16.12
2017-08-29T00:51:51.419Z,16.13
2017-08-29T00:51:55.380Z,16.12
2017-08-29T00:51:59.601Z,16.12
2017-08-29T00:52:03.878Z,16.12
2017-08-29T00:52:07.967Z,16.12
2017-08-29T00:52:11.931Z,16.12
2017-08-29T00:52:16.384Z,16.11
2017-08-29T00:52:20.473Z,16.12
2017-08-29T00:52:24.568Z,16.11
2017-08-29T00:52:28.391Z,16.12
2017-08-29T00:52:32.349Z,16.11
2017-08-29T00:52:36.569Z,16.11
2017-08-29T00:52:40.522Z,16.11
2017-08-29T00:52:44.466Z,16.11
2017-08-29T00:52:48.677Z,16.11
2017-08-29T00:52:52.637Z,16.11
2017-08-29T00:52:56.850Z,16.1
2017-08-29T00:53:00.951Z,16.11
2017-08-29T00:53:05.022Z,16.1
2017-08-29T00:53:09.233Z,16.11
2017-08-29T00:53:13.449Z,16.1
2017-08-29T00:53:17.776Z,16.09
2017-08-29T00:53:21.749Z,16.09
2017-08-29T00:53:25.845Z,16.1
2017-08-29T00:53:30.185Z,16.1
2017-08-29T00:53:34.282Z,16.1
2017-08-29T00:53:38.374Z,16.1
2017-08-29T00:53:42.592Z,16.09
2017-08-29T00:53:46.814Z,16.1
2017-08-29T00:53:50.909Z,16.1
2017-08-29T00:53:54.872Z,16.1
2017-08-29T00:53:59.334Z,16.1
2017-08-29T00:54:03.846Z,16.1
2017-08-29T00:54:07.800Z,16.1
2017-08-29T00:54:12.024Z,16.1
2017-08-29T00:54:16.235Z,16.09
2017-08-29T00:54:20.326Z,16.09
2017-08-29T00:54:24.288Z,16.09
2017-08-29T00:54:28.513Z,16.09
2017-08-29T00:54:32.610Z,16.09
2017-08-29T00:54:36.850Z,16.09
2017-08-29T00:54:41.077Z,16.09